This demonstration page uses our WeatherBlox Daily Observations layout. Learn more.

38.89511, -77.03637

Hourly Observations for January 31, 2015

Temp ( °F °C ) Dew Point ( °F °C ) Humidity (%) Winds ( mph kmh ) Pressure ( in mb ) Visibility ( mi km ) Precip ( " mm )
12:52 am 00:52 Clear 23 -5 3 -16.1 42 42 NW 16 26 30.28 1025 10 16.0934 0 0
1:52 am 01:52 Clear 22 -5.6 3 -16.1 44 44 NNW 18 30 30.3 1026 10 16.0934 0 0
2:52 am 02:52 Clear 22 -5.6 3 -16.1 44 44 NW 18 30 30.3 1026 10 16.0934 0 0
3:52 am 03:52 Clear 21 -6.1 3 -16.1 45 45 NW 16 26 30.31 1026 10 16.0934 0 0
4:52 am 04:52 Clear 21 -6.1 4 -15.6 47 47 NW 12 19 30.3 1026 10 16.0934 0 0
5:52 am 05:52 Clear 21 -6.1 4 -15.6 47 47 NW 12 19 30.3 1026 10 16.0934 0 0
6:52 am 06:52 Clear 21 -6.1 3 -16.1 45 45 NW 14 22 30.32 1027 10 16.0934 0 0
7:52 am 07:52 Sunny 22 -5.6 2 -16.7 42 42 NW 12 19 30.35 1028 10 16.0934 0 0
8:52 am 08:52 Sunny 24 -4.4 1 -17.2 36 36 NNW 15 24 30.35 1028 10 16.0934 0 0
9:52 am 09:52 Sunny 27 -2.8 1 -17.2 32 32 NW 15 24 30.35 1028 10 16.0934 0 0
10:52 am 10:52 Sunny 29 -1.7 3 -16.1 33 33 NNW 15 24 30.37 1028 10 16.0934 0 0
11:52 am 11:52 Sunny 30 -1.1 3 -16.1 31 31 NW 12 19 30.35 1028 10 16.0934 0 0
12:52 pm 12:52 Mostly Sunny 31 -0.6 2 -16.7 29 29 WNW 14 22 30.32 1027 10 16.0934 0 0
1:52 pm 13:52 Mostly Sunny 33 0.6 5 -15 30 30 NW 15 24 30.3 1026 10 16.0934 0 0
2:52 pm 14:52 Mostly Sunny 34 1.1 6 -14.4 31 31 WNW 9 15 30.29 1026 10 16.0934 0 0
3:52 pm 15:52 Mostly Sunny 35 1.7 7 -13.9 31 31 WNW 6 9 30.27 1025 10 16.0934 0 0
4:52 pm 16:52 Mostly Sunny 35 1.7 8 -13.3 32 32 NW 8 13 30.28 1025 10 16.0934 0 0
5:52 pm 17:52 Mostly Clear 34 1.1 8 -13.3 34 34 Calm 30.29 1026 10 16.0934 0 0
6:52 pm 18:52 Clear 33 0.6 10 -12.2 38 38 Calm 30.29 1026 10 16.0934 0 0
7:52 pm 19:52 Clear 31 -0.6 19 -7.2 61 61 Calm 30.29 1026 10 16.0934 0 0
8:52 pm 20:52 Clear 29 -1.7 12 -11.1 49 49 SW 5 7 30.29 1026 10 16.0934 0 0
9:52 pm 21:52 Clear 30 -1.1 13 -10.6 49 49 Calm 30.28 1025 10 16.0934 0 0
10:52 pm 22:52 Partly Cloudy 29 -1.7 14 -10 54 54 Calm 30.28 1025 10 16.0934 0 0
11:52 pm 23:52 Partly Cloudy 29 -1.7 16 -8.9 58 58 Calm 30.29 1026 10 16.0934 0 0

Powered by AerisWeather